createdAt,value
2019-02-28T00:02:30.582Z,25.27
2019-02-28T00:05:05.749Z,24.33
2019-02-28T00:07:34.435Z,26.87
2019-02-28T00:10:06.127Z,27.23
2019-02-28T00:12:37.170Z,26.50
2019-02-28T00:15:08.848Z,25.90
2019-02-28T00:17:42.586Z,26.83
2019-02-28T00:20:18.420Z,26.43
2019-02-28T00:22:49.662Z,27.60
2019-02-28T00:25:20.584Z,26.80
2019-02-28T00:27:53.442Z,26.27
2019-02-28T00:33:44.217Z,25.57
2019-02-28T00:36:16.366Z,26.97
2019-02-28T00:38:48.322Z,28.00
2019-02-28T00:44:17.099Z,28.73
2019-02-28T00:46:48.023Z,26.87
2019-02-28T00:49:26.262Z,28.67
2019-02-28T00:52:01.540Z,29.70
2019-02-28T00:54:32.155Z,30.07
2019-02-28T01:00:24.663Z,29.57
2019-02-28T01:02:55.559Z,29.80
2019-02-28T01:05:26.642Z,30.37
2019-02-28T01:08:07.026Z,30.37
2019-02-28T01:10:54.101Z,31.93
2019-02-28T01:13:28.043Z,30.97
2019-02-28T01:38:25.443Z,32.90
2019-02-28T01:40:56.819Z,35.30
2019-02-28T01:43:28.768Z,32.60
2019-02-28T01:46:00.680Z,32.93
2019-02-28T01:48:31.583Z,33.80
2019-02-28T01:51:02.570Z,32.40
2019-02-28T01:53:33.865Z,33.70
2019-02-28T01:56:04.801Z,34.23
2019-02-28T01:58:36.600Z,33.67
2019-02-28T02:01:08.241Z,34.17
2019-02-28T02:03:40.723Z,36.13
2019-02-28T02:06:12.593Z,35.20
2019-02-28T02:08:43.613Z,34.83
2019-02-28T02:11:15.077Z,35.20
2019-02-28T02:13:47.177Z,35.33
2019-02-28T02:16:18.554Z,35.03
2019-02-28T02:18:49.581Z,35.70
2019-02-28T02:21:20.622Z,33.70
2019-02-28T02:23:52.991Z,35.87
2019-02-28T02:26:25.269Z,32.80
2019-02-28T02:29:00.862Z,36.10
2019-02-28T02:31:29.336Z,35.27
2019-02-28T02:34:00.387Z,35.43
2019-02-28T02:36:31.720Z,36.83
2019-02-28T02:39:02.859Z,35.17
2019-02-28T02:41:35.546Z,36.13
2019-02-28T02:44:06.569Z,36.03
2019-02-28T02:46:37.617Z,34.77
2019-02-28T02:49:08.751Z,37.60
2019-02-28T02:51:39.841Z,36.27
2019-02-28T02:54:17.920Z,36.00
2019-02-28T02:56:43.911Z,36.97
2019-02-28T02:59:15.007Z,35.43
2019-02-28T03:01:45.961Z,36.53
2019-02-28T03:04:22.949Z,35.87
2019-02-28T03:06:49.602Z,35.50
2019-02-28T03:09:20.669Z,36.97
2019-02-28T03:11:52.118Z,36.53
2019-02-28T03:14:23.059Z,35.83
2019-02-28T03:16:55.771Z,36.13
2019-02-28T03:19:33.126Z,35.83
2019-02-28T03:22:00.268Z,37.13
2019-02-28T03:24:31.299Z,37.87
2019-02-28T03:27:03.340Z,38.07
2019-02-28T03:29:34.426Z,38.17
2019-02-28T03:32:05.514Z,37.17
2019-02-28T03:34:37.961Z,36.07
2019-02-28T03:37:10.949Z,39.23
2019-02-28T03:39:42.451Z,38.10
2019-02-28T03:42:13.395Z,37.20
2019-02-28T03:44:44.717Z,39.17
2019-02-28T03:47:22.473Z,36.67
2019-02-28T03:49:50.096Z,37.63
2019-02-28T03:52:21.655Z,37.37
2019-02-28T03:54:52.606Z,37.80
2019-02-28T03:57:27.943Z,39.03
2019-02-28T03:59:56.994Z,37.63
2019-02-28T04:02:29.122Z,37.50
2019-02-28T04:05:00.303Z,37.37
2019-02-28T04:07:31.474Z,38.47
2019-02-28T04:10:02.420Z,37.80
2019-02-28T04:12:35.056Z,36.73
2019-02-28T04:15:10.184Z,38.27
2019-02-28T04:17:42.014Z,36.50
2019-02-28T04:20:13.628Z,38.43
2019-02-28T04:22:44.650Z,37.43
2019-02-28T04:25:22.465Z,39.13
2019-02-28T04:27:48.776Z,36.93
2019-02-28T04:30:19.836Z,37.37
2019-02-28T04:32:52.831Z,37.50
2019-02-28T04:35:25.237Z,39.20
2019-02-28T04:37:56.549Z,38.37
2019-02-28T04:40:27.719Z,37.70
2019-02-28T04:42:59.836Z,38.63
2019-02-28T04:45:31.126Z,37.60
2019-02-28T04:48:02.461Z,37.23
2019-02-28T04:50:33.914Z,38.03
2019-02-28T04:53:04.899Z,37.73
2019-02-28T04:55:37.323Z,37.33
2019-02-28T04:58:09.031Z,36.07
2019-02-28T05:00:40.059Z,37.90
2019-02-28T05:03:11.283Z,38.80
2019-02-28T05:05:46.591Z,36.63
2019-02-28T05:08:14.942Z,37.90
2019-02-28T05:10:46.619Z,36.40
2019-02-28T05:13:17.631Z,38.17
2019-02-28T05:15:48.528Z,38.40
2019-02-28T05:18:19.515Z,36.63
2019-02-28T05:20:50.859Z,38.80
2019-02-28T05:23:21.902Z,37.60
2019-02-28T05:25:52.926Z,39.20
2019-02-28T05:28:23.943Z,36.23
2019-02-28T05:30:55.384Z,36.40
2019-02-28T05:33:26.460Z,37.63
2019-02-28T05:36:00.143Z,36.33
2019-02-28T05:38:31.546Z,37.83
2019-02-28T05:41:02.894Z,37.03
2019-02-28T05:43:33.936Z,34.77
2019-02-28T05:46:04.968Z,37.07
2019-02-28T05:48:38.764Z,36.00
2019-02-28T06:26:33.793Z,34.30
2019-02-28T06:29:05.721Z,33.83
2019-02-28T06:31:36.914Z,34.00
2019-02-28T06:34:08.692Z,35.73
2019-02-28T06:36:40.391Z,39.00
2019-02-28T06:39:11.378Z,33.97
2019-02-28T06:41:42.456Z,33.50
2019-02-28T06:44:13.512Z,34.17
2019-02-28T06:46:44.535Z,33.37
2019-02-28T06:49:16.109Z,35.27
2019-02-28T06:51:48.384Z,32.63
2019-02-28T06:54:20.194Z,33.73
2019-02-28T06:56:54.090Z,32.70
2019-02-28T06:59:23.923Z,35.00
2019-02-28T07:01:57.566Z,33.87
2019-02-28T07:04:28.032Z,31.93
2019-02-28T07:06:59.159Z,33.93
2019-02-28T07:09:30.580Z,33.33
2019-02-28T07:12:01.631Z,32.60
2019-02-28T07:14:32.733Z,31.77
2019-02-28T07:17:07.447Z,31.73
2019-02-28T07:19:37.068Z,31.63
2019-02-28T07:22:08.116Z,30.67
2019-02-28T07:24:39.549Z,32.43
2019-02-28T07:27:10.546Z,32.07
2019-02-28T07:29:42.969Z,31.37
2019-02-28T07:32:14.622Z,30.93
2019-02-28T07:34:45.691Z,30.43
2019-02-28T07:37:18.881Z,31.47
2019-02-28T07:39:49.740Z,31.83
2019-02-28T07:42:20.690Z,31.97
2019-02-28T07:44:53.671Z,30.57
2019-02-28T07:47:25.458Z,30.97
2019-02-28T07:49:56.581Z,36.77
2019-02-28T07:52:32.441Z,33.27
2019-02-28T07:55:00.942Z,31.97
2019-02-28T07:57:32.786Z,32.73
2019-02-28T08:00:05.358Z,30.70
2019-02-28T08:02:39.261Z,30.17
2019-02-28T08:05:09.366Z,31.80
2019-02-28T08:07:40.818Z,30.83
2019-02-28T08:10:15.995Z,31.33
2019-02-28T08:12:46.420Z,31.10
2019-02-28T08:15:22.229Z,30.70
2019-02-28T08:17:52.622Z,30.70
2019-02-28T08:20:23.624Z,32.53
2019-02-28T08:22:56.556Z,29.83
2019-02-28T08:25:28.671Z,31.60
2019-02-28T08:28:00.872Z,30.23
2019-02-28T08:30:32.008Z,30.07
2019-02-28T08:33:03.130Z,30.57
2019-02-28T08:35:35.811Z,32.43
2019-02-28T08:38:08.275Z,28.93
2019-02-28T08:40:39.390Z,29.70
2019-02-28T08:43:13.403Z,29.80
2019-02-28T08:45:43.163Z,30.90
2019-02-28T08:48:15.011Z,29.43
2019-02-28T08:50:46.178Z,29.67
2019-02-28T08:53:17.277Z,30.00
2019-02-28T08:55:48.695Z,29.73
2019-02-28T08:58:19.709Z,29.63
2019-02-28T09:00:51.653Z,29.97
2019-02-28T09:03:24.282Z,29.23
2019-02-28T09:05:55.781Z,31.87
2019-02-28T09:08:26.869Z,30.97
2019-02-28T09:10:58.233Z,30.53
2019-02-28T09:13:29.209Z,31.57
2019-02-28T09:16:04.939Z,32.47
2019-02-28T09:18:35.020Z,30.50
2019-02-28T09:21:05.954Z,32.50
2019-02-28T09:23:37.722Z,31.70
2019-02-28T09:26:09.901Z,31.87
2019-02-28T09:28:40.985Z,32.67
2019-02-28T09:31:12.134Z,32.57
2019-02-28T09:33:43.677Z,31.53
2019-02-28T09:36:20.205Z,31.73
2019-02-28T09:38:56.652Z,32.53
2019-02-28T09:41:22.058Z,35.07
2019-02-28T09:43:53.098Z,35.13
2019-02-28T09:46:24.034Z,33.60
2019-02-28T09:48:55.123Z,34.27
2019-02-28T09:51:31.646Z,35.30
2019-02-28T09:53:59.847Z,35.83
2019-02-28T09:56:30.805Z,35.50
2019-02-28T09:59:03.276Z,34.30
2019-02-28T10:01:34.496Z,36.60
2019-02-28T10:04:05.564Z,33.97
2019-02-28T10:06:36.996Z,36.97
2019-02-28T10:09:08.732Z,37.43
2019-02-28T10:11:40.786Z,37.83
2019-02-28T10:14:12.922Z,38.30
2019-02-28T10:16:43.972Z,38.80
2019-02-28T10:19:14.956Z,39.43
2019-02-28T10:21:51.922Z,39.97
2019-02-28T10:24:18.916Z,40.70
2019-02-28T10:26:51.349Z,43.20
2019-02-28T10:29:22.603Z,42.30
2019-02-28T10:31:53.997Z,41.33
2019-02-28T10:34:26.370Z,42.90
2019-02-28T10:36:57.818Z,44.40
2019-02-28T10:39:29.184Z,44.87
2019-02-28T10:42:01.564Z,45.17
2019-02-28T10:44:33.451Z,46.33
2019-02-28T10:47:04.446Z,47.83
2019-02-28T10:49:36.139Z,45.87
2019-02-28T10:52:07.084Z,46.60
2019-02-28T10:54:38.069Z,46.20
2019-02-28T10:57:09.072Z,44.93
2019-02-28T10:59:40.114Z,43.67
2019-02-28T11:02:13.992Z,42.77
2019-02-28T11:04:45.312Z,41.10
2019-02-28T11:07:16.295Z,40.70
2019-02-28T11:09:47.691Z,40.00
2019-02-28T11:12:23.733Z,40.10
2019-02-28T11:14:53.513Z,39.17
2019-02-28T11:17:25.967Z,38.07
2019-02-28T11:19:56.941Z,36.57
2019-02-28T11:22:29.390Z,36.97
2019-02-28T11:25:01.000Z,33.40
2019-02-28T11:27:33.963Z,34.37
2019-02-28T11:30:07.463Z,32.27
2019-02-28T11:32:39.706Z,30.70
2019-02-28T11:35:11.509Z,30.07
2019-02-28T11:37:46.018Z,29.87
2019-02-28T11:40:16.904Z,29.03
2019-02-28T11:42:47.883Z,26.07
2019-02-28T11:45:21.905Z,24.63
2019-02-28T11:47:56.550Z,24.97
2019-02-28T11:50:27.572Z,23.57
2019-02-28T11:53:03.216Z,22.40
2019-02-28T11:55:31.314Z,21.47
2019-02-28T11:58:02.967Z,18.63
2019-02-28T12:00:35.838Z,19.70
2019-02-28T12:03:07.052Z,15.23
2019-02-28T12:05:38.089Z,14.57
2019-02-28T12:08:10.426Z,12.43
2019-02-28T12:10:41.711Z,13.03
2019-02-28T12:13:13.093Z,11.53
2019-02-28T12:15:44.144Z,11.03
2019-02-28T12:18:15.205Z,10.50
2019-02-28T12:20:46.805Z,9.70
2019-02-28T12:23:23.100Z,9.93
2019-02-28T12:25:51.424Z,10.03
2019-02-28T12:28:24.410Z,10.33
2019-02-28T12:30:57.252Z,9.03
2019-02-28T12:33:28.812Z,8.87
2019-02-28T12:36:00.206Z,8.67
2019-02-28T12:38:32.365Z,7.73
2019-02-28T12:41:03.304Z,7.43
2019-02-28T12:43:34.294Z,8.00
2019-02-28T12:46:05.624Z,7.23
2019-02-28T12:48:37.003Z,6.30
2019-02-28T12:51:08.002Z,6.73
2019-02-28T12:53:39.418Z,6.70
2019-02-28T12:56:13.917Z,6.63
2019-02-28T12:58:43.881Z,6.80
2019-02-28T13:01:15.031Z,7.07
2019-02-28T13:03:46.045Z,7.30
2019-02-28T13:06:23.395Z,7.17
2019-02-28T13:08:53.425Z,7.47
2019-02-28T13:11:24.222Z,7.33
2019-02-28T13:13:55.364Z,7.23
2019-02-28T13:16:26.981Z,8.17
2019-02-28T13:18:58.415Z,6.90
2019-02-28T13:21:31.247Z,6.53
2019-02-28T13:24:06.041Z,6.63
2019-02-28T13:26:35.389Z,5.20
2019-02-28T13:29:06.447Z,6.40
2019-02-28T13:31:38.387Z,6.40
2019-02-28T13:34:10.188Z,5.97
2019-02-28T13:36:42.477Z,6.10
2019-02-28T13:39:13.958Z,5.67
2019-02-28T13:41:45.159Z,4.77
2019-02-28T13:44:16.229Z,5.00
2019-02-28T13:46:47.637Z,5.57
2019-02-28T13:49:19.540Z,5.47
2019-02-28T13:51:50.607Z,5.43
2019-02-28T13:54:21.710Z,4.47
2019-02-28T13:56:52.741Z,4.00
2019-02-28T13:59:24.032Z,3.70
2019-02-28T14:01:55.488Z,4.40
2019-02-28T14:04:27.469Z,4.63
2019-02-28T14:06:58.453Z,4.50
2019-02-28T14:09:29.496Z,3.80
2019-02-28T14:12:00.880Z,4.20
2019-02-28T14:14:33.174Z,3.77
2019-02-28T14:17:15.779Z,3.63
2019-02-28T14:19:47.043Z,3.40
2019-02-28T14:22:19.727Z,3.30
2019-02-28T14:24:50.667Z,4.00
2019-02-28T14:27:25.211Z,3.67
2019-02-28T14:29:54.690Z,3.63
2019-02-28T14:32:25.637Z,3.60
2019-02-28T14:34:57.305Z,3.60
2019-02-28T14:37:29.378Z,3.43
2019-02-28T14:40:00.386Z,3.70
2019-02-28T14:42:32.102Z,3.00
2019-02-28T14:45:04.011Z,3.17
2019-02-28T14:47:36.246Z,3.40
2019-02-28T14:50:07.759Z,4.00
2019-02-28T14:52:39.413Z,3.53
2019-02-28T14:55:13.754Z,3.63
2019-02-28T14:57:44.740Z,3.17
2019-02-28T15:00:17.712Z,3.43
2019-02-28T15:02:50.680Z,2.37
2019-02-28T15:05:21.725Z,2.13
2019-02-28T15:07:53.040Z,1.83
2019-02-28T15:10:24.005Z,1.87
2019-02-28T15:12:55.331Z,1.83
2019-02-28T15:15:27.621Z,2.17
2019-02-28T15:17:58.547Z,2.00
2019-02-28T15:20:32.788Z,1.80
2019-02-28T15:23:02.620Z,2.23
2019-02-28T15:25:33.534Z,1.87
2019-02-28T15:31:26.199Z,1.70
2019-02-28T15:33:57.523Z,2.27
2019-02-28T15:36:28.913Z,2.00
2019-02-28T15:39:00.361Z,2.20
2019-02-28T15:41:33.723Z,1.77
2019-02-28T15:44:04.389Z,2.20
2019-02-28T15:46:36.048Z,1.87
2019-02-28T15:49:09.998Z,2.33
2019-02-28T15:51:39.697Z,1.87
2019-02-28T15:54:11.577Z,1.90
2019-02-28T15:56:42.984Z,2.20
2019-02-28T15:59:14.865Z,2.10
2019-02-28T16:01:47.034Z,2.20
2019-02-28T16:04:18.023Z,1.97
2019-02-28T16:06:56.564Z,1.83
2019-02-28T16:09:22.265Z,1.90
2019-02-28T16:11:53.198Z,2.17
2019-02-28T16:14:24.144Z,2.30
2019-02-28T16:16:56.766Z,2.40
2019-02-28T16:19:27.803Z,2.10
2019-02-28T16:21:58.742Z,2.20
2019-02-28T16:24:29.789Z,2.23
2019-02-28T16:27:00.840Z,2.00
2019-02-28T16:29:32.160Z,1.90
2019-02-28T16:32:03.489Z,2.33
2019-02-28T16:34:34.897Z,2.40
2019-02-28T16:37:05.943Z,2.20
2019-02-28T16:39:37.003Z,2.57
2019-02-28T16:42:08.349Z,2.23
2019-02-28T16:44:39.514Z,2.00
2019-02-28T16:47:11.569Z,2.20
2019-02-28T16:49:44.489Z,3.20
2019-02-28T16:52:15.711Z,2.40
2019-02-28T16:54:46.968Z,3.00
2019-02-28T16:57:17.867Z,2.53
2019-02-28T16:59:49.107Z,3.03
2019-02-28T17:02:20.193Z,3.03
2019-02-28T17:04:51.997Z,3.80
2019-02-28T17:07:23.931Z,3.87
2019-02-28T17:09:55.335Z,5.33
2019-02-28T17:12:48.671Z,4.00
2019-02-28T17:15:24.866Z,3.20
2019-02-28T17:18:02.595Z,3.80
2019-02-28T17:20:33.627Z,2.90
2019-02-28T17:23:04.738Z,3.37
2019-02-28T17:25:35.696Z,3.83
2019-02-28T17:28:29.823Z,4.73
2019-02-28T17:31:21.314Z,4.60
2019-02-28T17:33:52.589Z,4.60
2019-02-28T17:36:23.560Z,5.10
2019-02-28T17:38:54.622Z,5.10
2019-02-28T17:41:25.894Z,5.80
2019-02-28T17:44:47.389Z,4.53
2019-02-28T17:47:56.154Z,4.33
2019-02-28T17:50:42.824Z,4.70
2019-02-28T17:53:52.453Z,4.23
2019-02-28T17:56:58.058Z,4.40
2019-02-28T18:03:29.531Z,3.67
2019-02-28T18:06:36.880Z,3.60
2019-02-28T18:09:32.222Z,3.13
2019-02-28T18:12:49.903Z,4.00
2019-02-28T18:16:00.622Z,2.97
2019-02-28T18:19:08.496Z,3.10
2019-02-28T18:25:31.862Z,4.07
2019-02-28T18:28:42.282Z,5.27
2019-02-28T18:31:15.108Z,4.53
2019-02-28T18:34:04.718Z,6.10
2019-02-28T18:36:35.799Z,5.70
2019-02-28T18:39:11.438Z,5.93
2019-02-28T18:41:43.077Z,6.77
2019-02-28T18:44:14.786Z,7.43
2019-02-28T18:46:45.830Z,7.53
2019-02-28T18:49:16.832Z,8.53
2019-02-28T18:51:47.836Z,8.57
2019-02-28T18:54:18.754Z,8.93
2019-02-28T18:56:49.808Z,9.30
2019-02-28T18:59:20.750Z,9.67
2019-02-28T19:01:51.690Z,9.37
2019-02-28T19:04:22.658Z,10.53
2019-02-28T19:06:53.692Z,10.40
2019-02-28T19:09:25.408Z,10.73
2019-02-28T19:11:56.463Z,10.27
2019-02-28T19:14:27.572Z,9.83
2019-02-28T19:16:58.595Z,10.43
2019-02-28T19:19:29.963Z,10.33
2019-02-28T19:22:01.343Z,10.73
2019-02-28T19:24:32.399Z,11.73
2019-02-28T19:27:03.534Z,11.57
2019-02-28T19:29:34.522Z,12.10
2019-02-28T19:32:05.918Z,12.10
2019-02-28T19:34:37.060Z,12.00
2019-02-28T19:37:08.443Z,12.80
2019-02-28T19:39:39.416Z,11.57
2019-02-28T19:42:10.451Z,12.53
2019-02-28T19:44:41.549Z,13.43
2019-02-28T19:47:12.469Z,13.73
2019-02-28T19:49:43.461Z,13.60
2019-02-28T19:52:15.169Z,12.93
2019-02-28T19:54:46.111Z,12.63
2019-02-28T19:57:17.043Z,13.47
2019-02-28T19:59:48.372Z,13.33
2019-02-28T20:02:19.349Z,13.43
2019-02-28T20:04:50.255Z,13.60
2019-02-28T20:07:21.276Z,13.80
2019-02-28T20:09:52.271Z,13.57
2019-02-28T20:12:24.340Z,13.23
2019-02-28T20:14:55.658Z,13.53
2019-02-28T20:17:26.576Z,12.60
2019-02-28T20:19:57.960Z,12.87
2019-02-28T20:22:28.871Z,12.73
2019-02-28T20:25:00.759Z,12.90
2019-02-28T20:27:32.522Z,10.90
2019-02-28T20:30:04.099Z,11.80
2019-02-28T20:32:35.603Z,9.40
2019-02-28T20:35:07.520Z,9.27
2019-02-28T20:37:38.511Z,10.37
2019-02-28T20:40:11.335Z,10.03
2019-02-28T20:42:42.418Z,9.00
2019-02-28T20:45:13.469Z,9.43
2019-02-28T20:47:44.850Z,8.43
2019-02-28T20:50:22.168Z,8.87
2019-02-28T20:52:53.169Z,8.90
2019-02-28T20:55:24.060Z,7.77
2019-02-28T20:57:55.055Z,6.97
2019-02-28T21:00:27.509Z,7.57
2019-02-28T21:02:58.953Z,7.27
2019-02-28T21:05:29.935Z,7.60
2019-02-28T21:08:01.233Z,7.17
2019-02-28T21:10:33.802Z,6.57
2019-02-28T21:13:04.911Z,6.50
2019-02-28T21:15:36.274Z,6.47
2019-02-28T21:18:08.259Z,7.03
2019-02-28T21:20:39.241Z,7.07
2019-02-28T21:23:10.228Z,6.03
2019-02-28T21:25:41.204Z,7.23
2019-02-28T21:28:13.208Z,8.00
2019-02-28T21:30:44.196Z,7.80
2019-02-28T21:33:15.533Z,7.40
2019-02-28T21:35:49.773Z,7.53
2019-02-28T21:38:20.701Z,7.93
2019-02-28T21:40:51.768Z,7.77
2019-02-28T21:43:22.765Z,6.90
2019-02-28T21:45:54.417Z,7.30
2019-02-28T21:48:25.777Z,6.80
2019-02-28T21:50:56.826Z,7.10
2019-02-28T21:53:29.030Z,6.80
2019-02-28T21:56:00.009Z,6.80
2019-02-28T21:58:31.373Z,7.50
2019-02-28T22:01:02.587Z,6.57
2019-02-28T22:03:34.053Z,6.50
2019-02-28T22:06:04.989Z,6.77
2019-02-28T22:08:35.893Z,6.50
2019-02-28T22:11:07.837Z,6.20
2019-02-28T22:13:38.741Z,6.37
2019-02-28T22:16:09.751Z,6.57
2019-02-28T22:18:40.687Z,6.90
2019-02-28T22:21:11.967Z,6.57
2019-02-28T22:23:43.415Z,6.07
2019-02-28T22:26:14.417Z,5.60
2019-02-28T22:28:46.105Z,5.50
2019-02-28T22:31:43.732Z,6.43
2019-02-28T22:34:24.250Z,5.67
2019-02-28T22:36:55.585Z,6.33
2019-02-28T22:39:26.526Z,5.73
2019-02-28T22:41:57.459Z,6.30
2019-02-28T22:44:28.409Z,5.80
2019-02-28T22:46:59.314Z,5.63
2019-02-28T22:49:30.235Z,6.27
2019-02-28T22:52:01.259Z,6.20
2019-02-28T22:54:32.867Z,5.70
2019-02-28T22:57:03.798Z,5.57
2019-02-28T22:59:35.087Z,5.40
2019-02-28T23:02:06.771Z,6.07
2019-02-28T23:04:38.121Z,6.10
2019-02-28T23:07:09.101Z,5.73
2019-02-28T23:09:40.187Z,5.93
2019-02-28T23:12:11.482Z,5.67
2019-02-28T23:14:42.730Z,5.87
2019-02-28T23:17:14.486Z,6.07
2019-02-28T23:19:45.518Z,6.33
2019-02-28T23:22:16.931Z,6.87
2019-02-28T23:24:48.532Z,7.00
2019-02-28T23:27:20.032Z,6.20
2019-02-28T23:30:10.159Z,6.30
2019-02-28T23:32:59.409Z,6.60
2019-02-28T23:35:40.852Z,6.83
2019-02-28T23:38:12.094Z,7.37
2019-02-28T23:40:43.007Z,6.13
2019-02-28T23:43:14.356Z,7.17
2019-02-28T23:45:45.904Z,7.77
2019-02-28T23:48:17.514Z,8.50
2019-02-28T23:50:48.804Z,6.00
2019-02-28T23:53:19.852Z,6.47
2019-02-28T23:55:50.764Z,6.87
2019-02-28T23:58:21.711Z,7.57
